sensor_id;sensor_type;location;lat;lon;timestamp;pressure;altitude;pressure_sealevel;temperature;humidity
36404;BME280;22437;55.646;37.518;2022-08-21T00:02:13;99633.38;;;19.75;35.57
36404;BME280;22437;55.646;37.518;2022-08-21T00:04:45;99646.72;;;19.66;35.35
36404;BME280;22437;55.646;37.518;2022-08-21T00:07:25;99633.31;;;19.71;35.36
36404;BME280;22437;55.646;37.518;2022-08-21T00:09:54;99633.66;;;19.55;35.82
36404;BME280;22437;55.646;37.518;2022-08-21T00:12:24;99640.00;;;19.60;35.27
36404;BME280;22437;55.646;37.518;2022-08-21T00:14:54;99637.63;;;19.62;35.37
36404;BME280;22437;55.646;37.518;2022-08-21T00:17:25;99635.66;;;19.55;35.76
36404;BME280;22437;55.646;37.518;2022-08-21T00:19:56;99627.38;;;19.55;35.52
36404;BME280;22437;55.646;37.518;2022-08-21T00:22:25;99634.44;;;19.52;35.58
36404;BME280;22437;55.646;37.518;2022-08-21T00:24:55;99630.06;;;19.44;35.74
36404;BME280;22437;55.646;37.518;2022-08-21T00:27:24;99640.31;;;19.40;35.88
36404;BME280;22437;55.646;37.518;2022-08-21T00:29:54;99626.09;;;19.34;36.26
36404;BME280;22437;55.646;37.518;2022-08-21T00:32:25;99635.53;;;19.33;36.08
36404;BME280;22437;55.646;37.518;2022-08-21T00:34:57;99628.44;;;19.32;36.06
36404;BME280;22437;55.646;37.518;2022-08-21T00:37:26;99632.34;;;19.28;36.13
36404;BME280;22437;55.646;37.518;2022-08-21T00:39:58;99625.59;;;19.18;36.20
36404;BME280;22437;55.646;37.518;2022-08-21T00:42:29;99624.41;;;19.19;36.21
36404;BME280;22437;55.646;37.518;2022-08-21T00:44:59;99624.81;;;19.17;36.28
36404;BME280;22437;55.646;37.518;2022-08-21T00:47:30;99620.44;;;19.13;36.20
36404;BME280;22437;55.646;37.518;2022-08-21T00:50:01;99625.91;;;19.06;36.41
36404;BME280;22437;55.646;37.518;2022-08-21T00:52:31;99626.16;;;19.56;35.67
36404;BME280;22437;55.646;37.518;2022-08-21T00:55:02;99626.34;;;19.11;36.00
36404;BME280;22437;55.646;37.518;2022-08-21T00:57:39;99627.91;;;19.05;36.51
36404;BME280;22437;55.646;37.518;2022-08-21T01:00:14;99629.03;;;19.01;36.57
36404;BME280;22437;55.646;37.518;2022-08-21T01:02:45;99629.00;;;18.97;36.73
36404;BME280;22437;55.646;37.518;2022-08-21T01:05:16;99625.06;;;18.94;36.54
36404;BME280;22437;55.646;37.518;2022-08-21T01:07:45;99636.84;;;18.91;36.50
36404;BME280;22437;55.646;37.518;2022-08-21T01:10:16;99627.00;;;18.90;36.92
36404;BME280;22437;55.646;37.518;2022-08-21T01:12:51;99633.28;;;18.87;36.72
36404;BME280;22437;55.646;37.518;2022-08-21T01:15:26;99637.56;;;18.81;36.87
36404;BME280;22437;55.646;37.518;2022-08-21T01:17:56;99638.28;;;18.74;36.77
36404;BME280;22437;55.646;37.518;2022-08-21T01:20:27;99628.84;;;18.75;37.08
36404;BME280;22437;55.646;37.518;2022-08-21T01:23:02;99624.50;;;18.74;36.87
36404;BME280;22437;55.646;37.518;2022-08-21T01:25:33;99611.78;;;18.63;36.91
36404;BME280;22437;55.646;37.518;2022-08-21T01:28:07;99627.53;;;18.62;37.30
36404;BME280;22437;55.646;37.518;2022-08-21T01:30:40;99615.69;;;18.54;37.45
36404;BME280;22437;55.646;37.518;2022-08-21T01:33:11;99620.81;;;18.56;37.16
36404;BME280;22437;55.646;37.518;2022-08-21T01:35:40;99622.75;;;18.52;37.24
36404;BME280;22437;55.646;37.518;2022-08-21T01:38:13;99623.56;;;18.56;37.22
36404;BME280;22437;55.646;37.518;2022-08-21T01:40:43;99620.78;;;18.52;37.55
36404;BME280;22437;55.646;37.518;2022-08-21T01:43:12;99625.09;;;18.50;37.70
36404;BME280;22437;55.646;37.518;2022-08-21T01:45:41;99617.53;;;18.43;37.46
36404;BME280;22437;55.646;37.518;2022-08-21T01:48:11;99622.28;;;18.43;37.38
36404;BME280;22437;55.646;37.518;2022-08-21T01:50:40;99617.53;;;18.43;37.69
36404;BME280;22437;55.646;37.518;2022-08-21T01:53:12;99626.25;;;18.49;37.64
36404;BME280;22437;55.646;37.518;2022-08-21T01:55:43;99623.03;;;18.39;37.41
36404;BME280;22437;55.646;37.518;2022-08-21T01:58:14;99625.00;;;18.39;37.62
36404;BME280;22437;55.646;37.518;2022-08-21T02:00:43;99630.09;;;18.37;37.65
36404;BME280;22437;55.646;37.518;2022-08-21T02:03:20;99624.91;;;18.32;37.75
36404;BME280;22437;55.646;37.518;2022-08-21T02:06:02;99628.50;;;18.32;37.55
36404;BME280;22437;55.646;37.518;2022-08-21T02:08:34;99634.38;;;18.31;37.87
36404;BME280;22437;55.646;37.518;2022-08-21T02:11:03;99631.25;;;18.32;37.54
36404;BME280;22437;55.646;37.518;2022-08-21T02:13:33;99629.19;;;18.26;37.80
36404;BME280;22437;55.646;37.518;2022-08-21T02:16:03;99628.88;;;18.31;37.87
36404;BME280;22437;55.646;37.518;2022-08-21T02:18:33;99624.91;;;18.32;37.76
36404;BME280;22437;55.646;37.518;2022-08-21T02:21:03;99625.28;;;18.27;38.07
36404;BME280;22437;55.646;37.518;2022-08-21T02:23:35;99630.84;;;18.34;37.87
36404;BME280;22437;55.646;37.518;2022-08-21T02:26:07;99631.59;;;18.27;37.99
36404;BME280;22437;55.646;37.518;2022-08-21T02:28:37;99630.31;;;18.17;38.04
36404;BME280;22437;55.646;37.518;2022-08-21T02:31:07;99625.19;;;18.16;38.21
36404;BME280;22437;55.646;37.518;2022-08-21T02:33:36;99632.69;;;18.19;38.10
36404;BME280;22437;55.646;37.518;2022-08-21T02:36:07;99633.09;;;18.21;38.28
36404;BME280;22437;55.646;37.518;2022-08-21T02:38:40;99639.84;;;18.27;38.23
36404;BME280;22437;55.646;37.518;2022-08-21T02:41:12;99642.53;;;18.20;38.09
36404;BME280;22437;55.646;37.518;2022-08-21T02:43:42;99636.22;;;18.19;38.15
36404;BME280;22437;55.646;37.518;2022-08-21T02:46:14;99637.00;;;18.20;38.81
36404;BME280;22437;55.646;37.518;2022-08-21T02:48:44;99633.09;;;18.21;38.28
36404;BME280;22437;55.646;37.518;2022-08-21T02:51:17;99631.22;;;18.29;38.20
36404;BME280;22437;55.646;37.518;2022-08-21T02:53:48;99632.41;;;18.31;38.21
36404;BME280;22437;55.646;37.518;2022-08-21T02:56:18;99632.38;;;18.76;37.28
36404;BME280;22437;55.646;37.518;2022-08-21T02:58:50;99627.75;;;18.87;37.24
36404;BME280;22437;55.646;37.518;2022-08-21T03:01:23;99638.03;;;18.42;37.79
36404;BME280;22437;55.646;37.518;2022-08-21T03:03:53;99632.06;;;18.36;38.18
36404;BME280;22437;55.646;37.518;2022-08-21T03:06:24;99647.84;;;18.43;38.07
36404;BME280;22437;55.646;37.518;2022-08-21T03:08:55;99641.50;;;18.35;38.24
36404;BME280;22437;55.646;37.518;2022-08-21T03:11:25;99639.56;;;18.39;38.34
36404;BME280;22437;55.646;37.518;2022-08-21T03:13:54;99630.88;;;18.37;37.93
36404;BME280;22437;55.646;37.518;2022-08-21T03:16:25;99632.16;;;18.47;38.14
36404;BME280;22437;55.646;37.518;2022-08-21T03:19:00;99632.91;;;18.44;38.02
36404;BME280;22437;55.646;37.518;2022-08-21T03:21:31;99641.22;;;18.51;38.15
36404;BME280;22437;55.646;37.518;2022-08-21T03:24:03;99636.56;;;18.55;37.76
36404;BME280;22437;55.646;37.518;2022-08-21T03:26:34;99641.63;;;18.50;37.66
36404;BME280;22437;55.646;37.518;2022-08-21T03:29:07;99640.03;;;18.49;37.67
36404;BME280;22437;55.646;37.518;2022-08-21T03:31:38;99642.81;;;18.52;38.05
36404;BME280;22437;55.646;37.518;2022-08-21T03:34:07;99657.38;;;18.53;37.46
36404;BME280;22437;55.646;37.518;2022-08-21T03:36:36;99643.59;;;18.53;37.97
36404;BME280;22437;55.646;37.518;2022-08-21T03:39:07;99645.25;;;18.57;37.63
36404;BME280;22437;55.646;37.518;2022-08-21T03:41:37;99647.19;;;18.57;37.67
36404;BME280;22437;55.646;37.518;2022-08-21T03:44:07;99646.47;;;18.64;37.54
36404;BME280;22437;55.646;37.518;2022-08-21T03:46:37;99656.75;;;18.70;37.60
36404;BME280;22437;55.646;37.518;2022-08-21T03:49:08;99651.63;;;18.72;37.62
36404;BME280;22437;55.646;37.518;2022-08-21T03:51:40;99645.00;;;18.77;37.17
36404;BME280;22437;55.646;37.518;2022-08-21T03:54:12;99649.00;;;18.83;37.15
36404;BME280;22437;55.646;37.518;2022-08-21T03:56:41;99647.03;;;18.84;37.08
36404;BME280;22437;55.646;37.518;2022-08-21T03:59:11;99650.22;;;18.89;36.95
36404;BME280;22437;55.646;37.518;2022-08-21T04:01:51;99646.75;;;18.96;36.84
36404;BME280;22437;55.646;37.518;2022-08-21T04:04:21;99645.91;;;18.88;36.78
36404;BME280;22437;55.646;37.518;2022-08-21T04:06:51;99645.53;;;18.90;36.84
36404;BME280;22437;55.646;37.518;2022-08-21T04:09:22;99638.53;;;19.03;36.83
36404;BME280;22437;55.646;37.518;2022-08-21T04:11:52;99634.97;;;19.06;36.26
36404;BME280;22437;55.646;37.518;2022-08-21T04:14:22;99643.31;;;19.13;36.54
36404;BME280;22437;55.646;37.518;2022-08-21T04:16:52;99638.63;;;19.21;36.21
36404;BME280;22437;55.646;37.518;2022-08-21T04:19:22;99645.38;;;19.31;36.00
36404;BME280;22437;55.646;37.518;2022-08-21T04:21:52;99640.69;;;19.42;36.01
36404;BME280;22437;55.646;37.518;2022-08-21T04:24:24;99642.72;;;19.52;35.79
36404;BME280;22437;55.646;37.518;2022-08-21T04:26:57;99645.88;;;19.54;35.97
36404;BME280;22437;55.646;37.518;2022-08-21T04:29:27;99639.19;;;19.55;35.73
36404;BME280;22437;55.646;37.518;2022-08-21T04:31:56;99649.03;;;19.56;35.87
36404;BME280;22437;55.646;37.518;2022-08-21T04:34:26;99645.88;;;19.54;35.96
36404;BME280;22437;55.646;37.518;2022-08-21T04:36:55;99640.75;;;19.56;36.07
36404;BME280;22437;55.646;37.518;2022-08-21T04:39:26;99645.94;;;19.69;35.54
36404;BME280;22437;55.646;37.518;2022-08-21T04:41:56;99643.63;;;19.74;35.30
36404;BME280;22437;55.646;37.518;2022-08-21T04:44:25;99651.53;;;19.76;35.79
36404;BME280;22437;55.646;37.518;2022-08-21T04:46:54;99657.91;;;19.87;35.06
36404;BME280;22437;55.646;37.518;2022-08-21T04:49:24;99652.75;;;19.97;35.18
36404;BME280;22437;55.646;37.518;2022-08-21T04:51:54;99660.28;;;20.00;35.51
36404;BME280;22437;55.646;37.518;2022-08-21T04:54:26;99658.34;;;20.07;35.11
36404;BME280;22437;55.646;37.518;2022-08-21T04:56:57;99648.47;;;20.17;34.80
36404;BME280;22437;55.646;37.518;2022-08-21T04:59:30;99644.94;;;20.20;34.51
36404;BME280;22437;55.646;37.518;2022-08-21T05:02:01;99650.06;;;20.18;34.62
36404;BME280;22437;55.646;37.518;2022-08-21T05:04:33;99649.28;;;20.10;34.81
36404;BME280;22437;55.646;37.518;2022-08-21T05:07:09;99655.59;;;20.25;34.57
36404;BME280;22437;55.646;37.518;2022-08-21T05:09:42;99656.41;;;20.29;34.24
36404;BME280;22437;55.646;37.518;2022-08-21T05:12:12;99656.03;;;20.45;34.37
36404;BME280;22437;55.646;37.518;2022-08-21T05:14:42;99652.06;;;20.50;33.91
36404;BME280;22437;55.646;37.518;2022-08-21T05:17:12;99657.66;;;20.64;34.16
36404;BME280;22437;55.646;37.518;2022-08-21T05:19:42;99654.47;;;20.73;34.29
36404;BME280;22437;55.646;37.518;2022-08-21T05:22:18;99638.69;;;20.70;33.92
36404;BME280;22437;55.646;37.518;2022-08-21T05:24:50;99652.09;;;20.79;34.04
36404;BME280;22437;55.646;37.518;2022-08-21T05:27:27;99645.00;;;20.81;33.95
36404;BME280;22437;55.646;37.518;2022-08-21T05:29:59;99643.44;;;20.66;33.89
36404;BME280;22437;55.646;37.518;2022-08-21T05:32:31;99651.72;;;20.73;34.40
36404;BME280;22437;55.646;37.518;2022-08-21T05:35:02;99648.97;;;20.69;34.66
36404;BME280;22437;55.646;37.518;2022-08-21T05:37:32;99647.78;;;20.81;34.14
36404;BME280;22437;55.646;37.518;2022-08-21T05:40:05;99656.47;;;20.80;33.66
36404;BME280;22437;55.646;37.518;2022-08-21T05:42:53;99652.53;;;20.73;33.84
36404;BME280;22437;55.646;37.518;2022-08-21T05:45:25;99645.41;;;20.69;33.65
36404;BME280;22437;55.646;37.518;2022-08-21T05:48:13;99650.16;;;20.76;33.42
36404;BME280;22437;55.646;37.518;2022-08-21T05:50:46;99643.81;;;20.86;33.12
36404;BME280;22437;55.646;37.518;2022-08-21T05:53:24;99639.84;;;20.94;33.32
36404;BME280;22437;55.646;37.518;2022-08-21T05:55:55;99644.16;;;21.17;32.60
36404;BME280;22437;55.646;37.518;2022-08-21T05:58:25;99642.97;;;21.18;32.43
36404;BME280;22437;55.646;37.518;2022-08-21T06:00:56;99647.28;;;21.33;32.47
36404;BME280;22437;55.646;37.518;2022-08-21T06:03:28;99643.69;;;21.43;32.38
36404;BME280;22437;55.646;37.518;2022-08-21T06:05:59;99643.69;;;21.43;32.28
36404;BME280;22437;55.646;37.518;2022-08-21T06:08:30;99638.97;;;21.40;31.63
36404;BME280;22437;55.646;37.518;2022-08-21T06:11:05;99640.47;;;21.63;31.20
36404;BME280;22437;55.646;37.518;2022-08-21T06:13:37;99630.50;;;21.83;31.19
36404;BME280;22437;55.646;37.518;2022-08-21T06:16:07;99628.47;;;22.54;29.88
36404;BME280;22437;55.646;37.518;2022-08-21T06:18:38;99633.13;;;22.08;30.30
36404;BME280;22437;55.646;37.518;2022-08-21T06:21:08;99635.84;;;22.16;30.63
36404;BME280;22437;55.646;37.518;2022-08-21T06:23:43;99630.97;;;22.41;30.69
36404;BME280;22437;55.646;37.518;2022-08-21T06:26:14;99631.88;;;22.76;29.90
36404;BME280;22437;55.646;37.518;2022-08-21T06:28:44;99625.38;;;22.90;28.38
36404;BME280;22437;55.646;37.518;2022-08-21T06:31:17;99624.09;;;22.98;28.26
36404;BME280;22437;55.646;37.518;2022-08-21T06:33:48;99625.06;;;23.26;28.47
36404;BME280;22437;55.646;37.518;2022-08-21T06:36:18;99627.03;;;23.60;27.88
36404;BME280;22437;55.646;37.518;2022-08-21T06:38:48;99625.00;;;24.22;26.92
36404;BME280;22437;55.646;37.518;2022-08-21T06:41:20;99616.53;;;24.80;25.87
36404;BME280;22437;55.646;37.518;2022-08-21T06:43:55;99618.56;;;25.23;25.36
36404;BME280;22437;55.646;37.518;2022-08-21T06:46:27;99628.34;;;25.71;24.55
36404;BME280;22437;55.646;37.518;2022-08-21T06:48:58;99632.13;;;26.17;23.97
36404;BME280;22437;55.646;37.518;2022-08-21T06:51:32;99629.19;;;26.57;23.39
36404;BME280;22437;55.646;37.518;2022-08-21T06:54:07;99624.56;;;26.67;22.80
36404;BME280;22437;55.646;37.518;2022-08-21T06:56:38;99622.97;;;26.99;22.79
36404;BME280;22437;55.646;37.518;2022-08-21T06:59:09;99624.38;;;27.37;22.43
36404;BME280;22437;55.646;37.518;2022-08-21T07:01:43;99617.22;;;27.36;21.33
36404;BME280;22437;55.646;37.518;2022-08-21T07:04:14;99611.72;;;27.32;21.61
36404;BME280;22437;55.646;37.518;2022-08-21T07:06:43;99619.03;;;27.55;21.58
36404;BME280;22437;55.646;37.518;2022-08-21T07:09:13;99611.06;;;28.08;21.54
36404;BME280;22437;55.646;37.518;2022-08-21T07:11:52;99611.22;;;28.78;20.44
36404;BME280;22437;55.646;37.518;2022-08-21T07:14:22;99604.47;;;28.54;20.56
36404;BME280;22437;55.646;37.518;2022-08-21T07:16:54;99608.72;;;28.33;20.99
36404;BME280;22437;55.646;37.518;2022-08-21T07:19:23;99604.34;;;28.57;20.43
36404;BME280;22437;55.646;37.518;2022-08-21T07:21:53;99604.94;;;29.09;20.58
36404;BME280;22437;55.646;37.518;2022-08-21T07:24:27;99602.81;;;29.13;21.00
36404;BME280;22437;55.646;37.518;2022-08-21T07:26:58;99606.03;;;29.24;20.33
36404;BME280;22437;55.646;37.518;2022-08-21T07:29:27;99606.19;;;29.52;19.48
36404;BME280;22437;55.646;37.518;2022-08-21T07:31:56;99608.31;;;29.17;20.06
36404;BME280;22437;55.646;37.518;2022-08-21T07:34:31;99618.34;;;28.92;20.71
36404;BME280;22437;55.646;37.518;2022-08-21T07:37:01;99609.91;;;28.70;20.67
36404;BME280;22437;55.646;37.518;2022-08-21T07:39:36;99617.38;;;28.86;19.56
36404;BME280;22437;55.646;37.518;2022-08-21T07:42:08;99614.25;;;29.06;19.52
36404;BME280;22437;55.646;37.518;2022-08-21T07:44:38;99621.59;;;28.56;20.18
36404;BME280;22437;55.646;37.518;2022-08-21T07:47:08;99610.81;;;28.54;20.76
36404;BME280;22437;55.646;37.518;2022-08-21T07:49:38;99604.19;;;29.31;19.24
36404;BME280;22437;55.646;37.518;2022-08-21T07:52:09;99598.16;;;29.63;19.47
36404;BME280;22437;55.646;37.518;2022-08-21T07:54:39;99599.28;;;29.66;19.08
36404;BME280;22437;55.646;37.518;2022-08-21T07:57:09;99599.03;;;29.73;19.02
36404;BME280;22437;55.646;37.518;2022-08-21T07:59:38;99601.16;;;30.41;19.18
36404;BME280;22437;55.646;37.518;2022-08-21T08:02:10;99599.38;;;31.02;17.99
36404;BME280;22437;55.646;37.518;2022-08-21T08:04:39;99595.13;;;31.26;17.77
36404;BME280;22437;55.646;37.518;2022-08-21T08:07:18;99590.25;;;31.45;17.46
36404;BME280;22437;55.646;37.518;2022-08-21T08:09:48;99588.41;;;31.41;17.28
36404;BME280;22437;55.646;37.518;2022-08-21T08:12:22;99586.94;;;31.74;17.28
36404;BME280;22437;55.646;37.518;2022-08-21T08:14:57;99587.66;;;31.13;17.56
36404;BME280;22437;55.646;37.518;2022-08-21T08:17:29;99586.44;;;30.28;18.27
36404;BME280;22437;55.646;37.518;2022-08-21T08:20:05;99583.94;;;30.30;18.42
36404;BME280;22437;55.646;37.518;2022-08-21T08:22:36;99580.13;;;30.64;17.80
36404;BME280;22437;55.646;37.518;2022-08-21T08:25:10;99587.66;;;31.13;17.51
36404;BME280;22437;55.646;37.518;2022-08-21T08:27:42;99579.06;;;31.26;17.62
36404;BME280;22437;55.646;37.518;2022-08-21T08:30:15;99580.13;;;30.64;17.19
36404;BME280;22437;55.646;37.518;2022-08-21T08:32:48;99586.38;;;30.09;18.14
36404;BME280;22437;55.646;37.518;2022-08-21T08:35:21;99581.28;;;30.94;17.83
36404;BME280;22437;55.646;37.518;2022-08-21T08:37:53;99575.13;;;31.42;17.28
36404;BME280;22437;55.646;37.518;2022-08-21T08:40:31;99576.50;;;31.98;16.42
36404;BME280;22437;55.646;37.518;2022-08-21T08:43:06;99563.50;;;32.34;16.62
36404;BME280;22437;55.646;37.518;2022-08-21T08:45:46;99567.97;;;32.50;15.75
36404;BME280;22437;55.646;37.518;2022-08-21T08:48:39;99559.13;;;32.00;16.75
36404;BME280;22437;55.646;37.518;2022-08-21T08:51:23;99571.84;;;30.42;18.16
36404;BME280;22437;55.646;37.518;2022-08-21T08:54:00;99573.53;;;29.90;18.07
36404;BME280;22437;55.646;37.518;2022-08-21T08:56:36;99573.03;;;29.51;18.21
36404;BME280;22437;55.646;37.518;2022-08-21T08:59:18;99575.97;;;29.47;18.44
36404;BME280;22437;55.646;37.518;2022-08-21T09:01:51;99581.63;;;28.77;18.36
36404;BME280;22437;55.646;37.518;2022-08-21T09:04:25;99583.06;;;28.34;19.14
36404;BME280;22437;55.646;37.518;2022-08-21T09:07:05;99580.03;;;28.54;19.03
36404;BME280;22437;55.646;37.518;2022-08-21T09:09:51;99569.00;;;28.73;19.58
36404;BME280;22437;55.646;37.518;2022-08-21T09:12:33;99573.47;;;29.05;18.68
36404;BME280;22437;55.646;37.518;2022-08-21T09:15:18;99570.03;;;29.01;18.48
36404;BME280;22437;55.646;37.518;2022-08-21T09:18:05;99563.97;;;29.24;18.82
36404;BME280;22437;55.646;37.518;2022-08-21T09:20:48;99568.25;;;29.60;18.83
36404;BME280;22437;55.646;37.518;2022-08-21T09:23:32;99568.22;;;30.32;18.70
36404;BME280;22437;55.646;37.518;2022-08-21T09:26:12;99560.75;;;31.40;17.09
36404;BME280;22437;55.646;37.518;2022-08-21T09:28:42;99563.16;;;31.75;16.15
36404;BME280;22437;55.646;37.518;2022-08-21T09:31:22;99570.06;;;31.74;16.00
36404;BME280;22437;55.646;37.518;2022-08-21T09:33:58;99571.28;;;31.02;16.45
36404;BME280;22437;55.646;37.518;2022-08-21T09:36:35;99564.34;;;29.89;16.94
36404;BME280;22437;55.646;37.518;2022-08-21T09:39:08;99563.81;;;29.50;17.59
36404;BME280;22437;55.646;37.518;2022-08-21T09:41:39;99568.94;;;29.20;17.98
36404;BME280;22437;55.646;37.518;2022-08-21T09:44:09;99566.94;;;28.86;18.25
36404;BME280;22437;55.646;37.518;2022-08-21T09:46:49;99566.22;;;28.95;18.46
36404;BME280;22437;55.646;37.518;2022-08-21T09:49:38;99563.84;;;28.71;19.01
36404;BME280;22437;55.646;37.518;2022-08-21T09:52:16;99568.09;;;28.28;19.51
36404;BME280;22437;55.646;37.518;2022-08-21T09:54:50;99559.94;;;28.08;20.50
36404;BME280;22437;55.646;37.518;2022-08-21T09:57:24;99558.72;;;27.96;20.26
36404;BME280;22437;55.646;37.518;2022-08-21T10:00:25;99556.69;;;28.09;19.73
36404;BME280;22437;55.646;37.518;2022-08-21T10:03:23;99568.31;;;28.21;19.84
36404;BME280;22437;55.646;37.518;2022-08-21T10:06:00;99567.66;;;28.04;20.69
36404;BME280;22437;55.646;37.518;2022-08-21T10:08:38;99567.75;;;27.87;20.42
36404;BME280;22437;55.646;37.518;2022-08-21T10:11:13;99560.16;;;28.01;20.66
36404;BME280;22437;55.646;37.518;2022-08-21T10:13:53;99557.47;;;28.23;20.39
36404;BME280;22437;55.646;37.518;2022-08-21T10:16:32;99557.69;;;28.28;20.08
36404;BME280;22437;55.646;37.518;2022-08-21T10:19:22;99553.19;;;28.18;20.06
36404;BME280;22437;55.646;37.518;2022-08-21T10:22:02;99549.28;;;27.64;19.73
36404;BME280;22437;55.646;37.518;2022-08-21T10:24:44;99543.19;;;27.27;19.23
36404;BME280;22437;55.646;37.518;2022-08-21T10:27:24;99547.69;;;27.38;19.26
36404;BME280;22437;55.646;37.518;2022-08-21T10:30:02;99554.31;;;27.14;19.66
36404;BME280;22437;55.646;37.518;2022-08-21T10:32:52;99545.53;;;27.00;19.56
36404;BME280;22437;55.646;37.518;2022-08-21T10:35:30;99541.91;;;27.15;19.53
36404;BME280;22437;55.646;37.518;2022-08-21T10:41:44;99539.88;;;27.32;19.74
36404;BME280;22437;55.646;37.518;2022-08-21T10:44:25;99527.38;;;27.08;20.03
36404;BME280;22437;55.646;37.518;2022-08-21T10:47:06;99521.91;;;27.17;20.35
36404;BME280;22437;55.646;37.518;2022-08-21T10:49:46;99525.72;;;27.23;20.93
36404;BME280;22437;55.646;37.518;2022-08-21T10:52:48;99523.44;;;27.60;20.43
36404;BME280;22437;55.646;37.518;2022-08-21T10:55:22;99520.16;;;27.36;20.84
36404;BME280;22437;55.646;37.518;2022-08-21T10:58:04;99517.16;;;27.43;20.72
36404;BME280;22437;55.646;37.518;2022-08-21T11:00:51;99515.16;;;27.44;20.09
36404;BME280;22437;55.646;37.518;2022-08-21T11:03:29;99512.50;;;27.40;19.92
36404;BME280;22437;55.646;37.518;2022-08-21T11:06:05;99524.22;;;27.48;20.02
36404;BME280;22437;55.646;37.518;2022-08-21T11:08:44;99526.25;;;27.60;19.62
36404;BME280;22437;55.646;37.518;2022-08-21T11:11:19;99524.44;;;27.66;19.65
36404;BME280;22437;55.646;37.518;2022-08-21T11:13:56;99523.78;;;27.62;20.00
36404;BME280;22437;55.646;37.518;2022-08-21T11:16:36;99526.47;;;27.79;19.61
36404;BME280;22437;55.646;37.518;2022-08-21T11:19:09;99527.38;;;27.50;19.06
36404;BME280;22437;55.646;37.518;2022-08-21T11:21:46;99523.53;;;27.31;19.74
36404;BME280;22437;55.646;37.518;2022-08-21T11:24:29;99529.59;;;27.55;19.70
36404;BME280;22437;55.646;37.518;2022-08-21T11:27:06;99519.09;;;27.59;19.41
36404;BME280;22437;55.646;37.518;2022-08-21T11:29:40;99526.69;;;27.46;19.63
36404;BME280;22437;55.646;37.518;2022-08-21T11:32:35;99527.19;;;27.96;19.59
36404;BME280;22437;55.646;37.518;2022-08-21T11:35:17;99514.97;;;27.77;19.49
36404;BME280;22437;55.646;37.518;2022-08-21T11:38:00;99514.19;;;27.63;19.65
36404;BME280;22437;55.646;37.518;2022-08-21T11:40:48;99515.06;;;27.60;19.67
36404;BME280;22437;55.646;37.518;2022-08-21T11:43:27;99505.88;;;27.34;20.42
36404;BME280;22437;55.646;37.518;2022-08-21T11:46:12;99501.84;;;27.35;20.35
36404;BME280;22437;55.646;37.518;2022-08-21T11:48:55;99503.25;;;27.14;21.13
36404;BME280;22437;55.646;37.518;2022-08-21T11:51:32;99497.03;;;26.93;20.53
36404;BME280;22437;55.646;37.518;2022-08-21T11:54:10;99502.38;;;26.88;21.29
36404;BME280;22437;55.646;37.518;2022-08-21T11:56:55;99486.19;;;26.83;20.87
36404;BME280;22437;55.646;37.518;2022-08-21T11:59:34;99492.00;;;26.59;20.87
36404;BME280;22437;55.646;37.518;2022-08-21T12:02:12;99488.84;;;26.57;20.63
36404;BME280;22437;55.646;37.518;2022-08-21T12:04:47;99488.25;;;26.66;21.42
36404;BME280;22437;55.646;37.518;2022-08-21T12:07:34;99499.44;;;26.79;20.63
36404;BME280;22437;55.646;37.518;2022-08-21T12:10:08;99493.94;;;26.75;20.82
36404;BME280;22437;55.646;37.518;2022-08-21T12:12:42;99494.19;;;26.81;20.79
36404;BME280;22437;55.646;37.518;2022-08-21T12:15:26;99496.84;;;27.01;20.80
36404;BME280;22437;55.646;37.518;2022-08-21T12:18:01;99501.75;;;26.97;20.77
36404;BME280;22437;55.646;37.518;2022-08-21T12:20:43;99501.91;;;27.19;20.59
36404;BME280;22437;55.646;37.518;2022-08-21T12:23:45;99499.84;;;27.36;20.24
36404;BME280;22437;55.646;37.518;2022-08-21T12:26:24;99503.41;;;27.36;20.23
36404;BME280;22437;55.646;37.518;2022-08-21T12:29:16;99508.78;;;27.82;19.64
36404;BME280;22437;55.646;37.518;2022-08-21T12:31:57;99507.69;;;27.79;19.42
36404;BME280;22437;55.646;37.518;2022-08-21T12:34:36;99508.34;;;27.70;19.31
36404;BME280;22437;55.646;37.518;2022-08-21T12:37:16;99492.78;;;28.08;18.45
36404;BME280;22437;55.646;37.518;2022-08-21T12:39:53;99502.41;;;27.81;18.92
36404;BME280;22437;55.646;37.518;2022-08-21T12:42:33;99506.69;;;27.99;18.31
36404;BME280;22437;55.646;37.518;2022-08-21T12:45:18;99494.59;;;27.89;18.00
36404;BME280;22437;55.646;37.518;2022-08-21T12:47:51;99485.44;;;28.01;18.00
36404;BME280;22437;55.646;37.518;2022-08-21T12:50:29;99494.28;;;28.00;18.28
36404;BME280;22437;55.646;37.518;2022-08-21T12:53:07;99480.16;;;28.03;18.39
36404;BME280;22437;55.646;37.518;2022-08-21T12:55:49;99486.88;;;28.06;18.43
36404;BME280;22437;55.646;37.518;2022-08-21T12:58:20;99464.03;;;27.82;18.19
36404;BME280;22437;55.646;37.518;2022-08-21T13:00:54;99482.63;;;27.76;18.42
36404;BME280;22437;55.646;37.518;2022-08-21T13:03:26;99474.34;;;27.85;18.42
36404;BME280;22437;55.646;37.518;2022-08-21T13:05:59;99482.09;;;27.94;18.71
36404;BME280;22437;55.646;37.518;2022-08-21T13:08:30;99484.81;;;28.19;18.46
36404;BME280;22437;55.646;37.518;2022-08-21T13:11:10;99477.38;;;28.38;19.00
36404;BME280;22437;55.646;37.518;2022-08-21T13:13:47;99474.78;;;28.44;18.63
36404;BME280;22437;55.646;37.518;2022-08-21T13:16:27;99474.06;;;28.18;18.81
36404;BME280;22437;55.646;37.518;2022-08-21T13:19:02;99475.81;;;28.37;18.60
36404;BME280;22437;55.646;37.518;2022-08-21T13:21:41;99469.09;;;28.35;18.51
36404;BME280;22437;55.646;37.518;2022-08-21T13:24:17;99467.88;;;28.36;18.46
36404;BME280;22437;55.646;37.518;2022-08-21T13:27:23;99473.31;;;28.39;18.64
36404;BME280;22437;55.646;37.518;2022-08-21T13:30:09;99475.44;;;28.48;18.75
36404;BME280;22437;55.646;37.518;2022-08-21T13:32:42;99471.09;;;27.99;18.82